Terminal Aerodrome Forecast
Issued by NWS

Home | Current Version | Previous Version | Graphics & Text | Print | Product List | Glossary On
Versions: 1 2 3 4 5 6 7 8 9 10 11 12 13 14 15 16
000
FTUS43 KPAH 221100
TAFCGI
TAF
KCGI 221120Z 2212/2312 00000KT 4SM BR MIFG SKC
     FM221300 06007KT P6SM SKC
     FM230100 00000KT P6SM SKC
     FM230900 00000KT 3SM BR MIFG SCT250=

USA.gov is the U.S. government's official web portal to all federal, state and local government web resources and services.